Burkville, Alabama
Current Conditions -  °F | °C
As of 1:35 PM on Friday 31 Oct 2014 (Local Time) from K1A9 Reporting Station
Scattered Clouds Scattered Clouds  
Wind Chill: 69°   Ceiling: Unl
Heat Index: 69°   Visibility: 10mi
Dew Point: 46°   Wind: 8mph
Humidity: 42%   Direction: 330°NNW
Pressure: 29.91"   Gusts: NA
Location:  32.3083°N, 86.6314°W
Report Text: K1A9 311835Z AUTO 33007KT 10SM SCT055 21/08 A2991 RMK AO2 T02080075
Loading
Personal Weather Stations






























Interactive Weather Map
Tropical Storm Tracking
New forecast layout! Learn more

10-Day Weather Forecast

Advertisements
Track Severe Weather on mobile